createdAt,value
2023-03-02T00:00:32.234Z,37
2023-03-02T00:01:04.039Z,43
2023-03-02T00:01:35.809Z,49
2023-03-02T00:02:08.488Z,53
2023-03-02T00:02:35.122Z,53
2023-03-02T00:02:55.688Z,54
2023-03-02T00:03:27.762Z,55
2023-03-02T00:03:59.677Z,59
2023-03-02T00:04:31.689Z,62
2023-03-02T00:05:04.271Z,61
2023-03-02T00:05:35.726Z,59
2023-03-02T00:06:07.697Z,57
2023-03-02T00:06:35.161Z,53
2023-03-02T00:06:55.736Z,49
2023-03-02T00:07:27.698Z,44
2023-03-02T00:07:59.713Z,43
2023-03-02T00:08:32.429Z,41
2023-03-02T00:09:03.940Z,39
2023-03-02T00:09:35.671Z,36
2023-03-02T00:10:08.033Z,32
2023-03-02T00:10:36.071Z,26
2023-03-02T00:10:55.923Z,19
2023-03-02T00:11:27.827Z,13
2023-03-02T00:11:59.790Z,7
2023-03-02T00:12:31.684Z,1
2023-03-02T00:13:03.964Z,358
2023-03-02T00:13:35.684Z,354
2023-03-02T00:14:07.682Z,352
2023-03-02T00:14:36.087Z,349
2023-03-02T00:14:56.460Z,349
2023-03-02T00:15:28.225Z,349
2023-03-02T00:15:59.894Z,350
2023-03-02T00:16:32.337Z,349
2023-03-02T00:17:03.977Z,353
2023-03-02T00:17:35.718Z,357
2023-03-02T00:18:08.591Z,359
2023-03-02T00:18:36.070Z,1
2023-03-02T00:18:55.667Z,3
2023-03-02T00:19:27.812Z,9
2023-03-02T00:19:59.691Z,14
2023-03-02T00:20:32.321Z,21
2023-03-02T00:21:04.142Z,21
2023-03-02T00:21:35.749Z,23
2023-03-02T00:22:09.010Z,23
2023-03-02T00:22:36.077Z,23
2023-03-02T00:22:55.721Z,21
2023-03-02T00:23:27.732Z,20
2023-03-02T00:23:59.688Z,23
2023-03-02T00:24:32.418Z,25
2023-03-02T00:25:04.353Z,26
2023-03-02T00:25:35.711Z,27
2023-03-02T00:26:07.787Z,25
2023-03-02T00:26:36.104Z,26
2023-03-02T00:26:55.698Z,22
2023-03-02T00:27:27.717Z,15
2023-03-02T00:27:59.694Z,13
2023-03-02T00:28:31.714Z,9
2023-03-02T00:29:04.028Z,7
2023-03-02T00:29:35.831Z,2
2023-03-02T00:30:08.496Z,358
2023-03-02T00:30:36.098Z,354
2023-03-02T00:30:56.737Z,354
2023-03-02T00:31:27.834Z,353
2023-03-02T00:31:59.828Z,354
2023-03-02T00:32:31.762Z,354
2023-03-02T00:33:04.126Z,358
2023-03-02T00:33:35.740Z,2
2023-03-02T00:34:08.433Z,359
2023-03-02T00:34:36.066Z,357
2023-03-02T00:34:55.689Z,354
2023-03-02T00:35:28.063Z,351
2023-03-02T00:35:59.741Z,350
2023-03-02T00:36:31.701Z,350
2023-03-02T00:37:04.040Z,353
2023-03-02T00:37:36.144Z,355
2023-03-02T00:38:07.881Z,355
2023-03-02T00:38:36.080Z,356
2023-03-02T00:38:55.716Z,355
2023-03-02T00:39:27.710Z,353
2023-03-02T00:39:59.707Z,351
2023-03-02T00:40:33.309Z,350
2023-03-02T00:41:04.042Z,349
2023-03-02T00:41:35.710Z,347
2023-03-02T00:42:07.796Z,346
2023-03-02T00:42:36.061Z,345
2023-03-02T00:42:55.672Z,341
2023-03-02T00:43:27.730Z,336
2023-03-02T00:43:59.684Z,335
2023-03-02T00:44:31.692Z,334
2023-03-02T00:45:04.762Z,333
2023-03-02T00:45:35.717Z,331
2023-03-02T00:46:07.922Z,329
2023-03-02T00:46:36.290Z,325
2023-03-02T00:46:56.627Z,321
2023-03-02T00:47:27.761Z,318
2023-03-02T00:48:00.000Z,315
2023-03-02T00:48:31.745Z,313
2023-03-02T00:49:04.033Z,312
2023-03-02T00:49:35.751Z,313
2023-03-02T00:50:08.898Z,313
2023-03-02T00:50:36.077Z,313
2023-03-02T00:50:55.946Z,314
2023-03-02T00:51:27.728Z,314
2023-03-02T00:51:59.714Z,314
2023-03-02T00:52:31.734Z,314
2023-03-02T00:53:04.045Z,317
2023-03-02T00:53:35.715Z,320
2023-03-02T00:54:07.688Z,321
2023-03-02T00:54:36.089Z,322
2023-03-02T00:54:55.732Z,323
2023-03-02T00:55:28.054Z,325
2023-03-02T00:55:59.754Z,327
2023-03-02T00:56:31.983Z,327
2023-03-02T00:57:04.085Z,329
2023-03-02T00:57:35.755Z,332
2023-03-02T00:58:11.587Z,337
2023-03-02T00:58:36.071Z,342
2023-03-02T00:58:55.699Z,344
2023-03-02T00:59:27.831Z,346
2023-03-02T00:59:59.731Z,347
2023-03-02T01:00:33.222Z,349
2023-03-02T01:01:04.092Z,351
2023-03-02T01:01:35.741Z,353
2023-03-02T01:02:07.747Z,355
2023-03-02T01:02:36.234Z,356
2023-03-02T01:02:55.821Z,353
2023-03-02T01:03:27.822Z,352
2023-03-02T01:03:59.734Z,352
2023-03-02T01:04:32.493Z,349
2023-03-02T01:05:04.408Z,349
2023-03-02T01:05:35.749Z,350
2023-03-02T01:06:07.710Z,350
2023-03-02T01:06:36.106Z,352
2023-03-02T01:06:55.728Z,352
2023-03-02T01:07:27.724Z,352
2023-03-02T01:07:59.707Z,349
2023-03-02T01:08:31.724Z,350
2023-03-02T01:09:04.139Z,350
2023-03-02T01:09:35.713Z,350
2023-03-02T01:10:08.206Z,352
2023-03-02T01:10:36.186Z,351
2023-03-02T01:10:56.920Z,349
2023-03-02T01:11:27.747Z,348
2023-03-02T01:11:59.739Z,350
2023-03-02T01:12:31.780Z,351
2023-03-02T01:13:04.248Z,352
2023-03-02T01:13:35.707Z,352
2023-03-02T01:14:08.655Z,352
2023-03-02T01:14:36.085Z,353
2023-03-02T01:14:55.722Z,354
2023-03-02T01:15:28.423Z,353
2023-03-02T01:15:59.760Z,354
2023-03-02T01:16:32.068Z,354
2023-03-02T01:17:04.127Z,355
2023-03-02T01:17:35.709Z,355
2023-03-02T01:18:07.743Z,356
2023-03-02T01:18:36.074Z,352
2023-03-02T01:18:55.769Z,352
2023-03-02T01:19:27.747Z,351
2023-03-02T01:19:59.720Z,349
2023-03-02T01:20:33.331Z,349
2023-03-02T01:21:05.027Z,349
2023-03-02T01:21:35.747Z,349
2023-03-02T01:22:07.732Z,346
2023-03-02T01:22:36.072Z,345
2023-03-02T01:22:55.726Z,345
2023-03-02T01:23:27.778Z,345
2023-03-02T01:23:59.703Z,345
2023-03-02T01:24:31.739Z,345
2023-03-02T01:25:04.415Z,344
2023-03-02T01:25:35.855Z,343
2023-03-02T01:26:07.727Z,343
2023-03-02T01:26:36.058Z,343
2023-03-02T01:26:56.650Z,342
2023-03-02T01:27:27.771Z,343
2023-03-02T01:27:59.870Z,343
2023-03-02T01:28:31.882Z,343
2023-03-02T01:29:04.139Z,342
2023-03-02T01:29:36.129Z,342
2023-03-02T01:30:10.891Z,342
2023-03-02T01:30:36.083Z,342
2023-03-02T01:30:55.998Z,342
2023-03-02T01:31:27.881Z,342
2023-03-02T01:31:59.881Z,342
2023-03-02T01:32:31.791Z,342
2023-03-02T01:33:04.289Z,342
2023-03-02T01:33:36.162Z,341
2023-03-02T01:34:07.735Z,342
2023-03-02T01:34:36.145Z,342
2023-03-02T01:34:55.734Z,343
2023-03-02T01:35:28.143Z,344
2023-03-02T01:35:59.835Z,345
2023-03-02T01:36:32.958Z,346
2023-03-02T01:37:04.246Z,346
2023-03-02T01:37:35.779Z,346
2023-03-02T01:38:07.981Z,347
2023-03-02T01:38:36.177Z,348
2023-03-02T01:38:55.847Z,349
2023-03-02T01:39:27.737Z,350
2023-03-02T01:43:36.374Z,351
2023-03-02T01:44:03.386Z,351
2023-03-02T01:44:32.010Z,350
2023-03-02T01:45:05.437Z,348
2023-03-02T01:45:35.952Z,348
2023-03-02T01:46:09.480Z,348
2023-03-02T01:46:37.058Z,348
2023-03-02T01:46:55.952Z,345
2023-03-02T01:47:27.981Z,346
2023-03-02T01:47:59.990Z,346
2023-03-02T01:48:31.937Z,344
2023-03-02T01:49:04.755Z,342
2023-03-02T01:49:35.729Z,341
2023-03-02T01:50:08.044Z,341
2023-03-02T01:50:36.395Z,337
2023-03-02T01:50:56.033Z,335
2023-03-02T01:51:27.815Z,336
2023-03-02T01:51:59.726Z,335
2023-03-02T01:52:31.906Z,334
2023-03-02T01:53:05.583Z,333
2023-03-02T01:53:35.775Z,333
2023-03-02T01:54:07.732Z,333
2023-03-02T01:54:36.066Z,334
2023-03-02T01:54:55.742Z,334
2023-03-02T01:55:28.052Z,335
2023-03-02T01:55:59.746Z,335
2023-03-02T01:56:32.123Z,335
2023-03-02T01:57:04.352Z,337
2023-03-02T01:57:35.877Z,335
2023-03-02T01:58:08.549Z,332
2023-03-02T01:58:36.081Z,332
2023-03-02T01:58:55.827Z,332
2023-03-02T01:59:27.803Z,330
2023-03-02T01:59:59.897Z,333
2023-03-02T02:00:32.350Z,339
2023-03-02T02:01:04.388Z,344
2023-03-02T02:01:35.838Z,347
2023-03-02T02:02:07.773Z,349
2023-03-02T02:02:36.197Z,354
2023-03-02T02:02:55.760Z,353
2023-03-02T02:03:27.843Z,351
2023-03-02T02:03:59.853Z,350
2023-03-02T02:04:32.510Z,355
2023-03-02T02:05:04.535Z,360
2023-03-02T02:05:35.866Z,6
2023-03-02T02:06:07.735Z,11
2023-03-02T02:06:36.079Z,16
2023-03-02T02:06:55.944Z,19
2023-03-02T02:07:27.864Z,27
2023-03-02T02:07:59.778Z,35
2023-03-02T02:08:31.824Z,45
2023-03-02T02:09:04.245Z,54
2023-03-02T02:09:35.797Z,61
2023-03-02T02:10:08.179Z,61
2023-03-02T02:10:36.089Z,62
2023-03-02T02:10:56.873Z,63
2023-03-02T02:11:27.790Z,62
2023-03-02T02:11:59.751Z,67
2023-03-02T02:12:31.774Z,69
2023-03-02T02:13:04.365Z,71
2023-03-02T02:13:35.858Z,73
2023-03-02T02:14:08.703Z,74
2023-03-02T02:14:36.379Z,74
2023-03-02T02:14:55.779Z,74
2023-03-02T02:15:28.303Z,73
2023-03-02T02:16:00.004Z,74
2023-03-02T02:16:32.219Z,74
2023-03-02T02:17:04.232Z,76
2023-03-02T02:17:35.761Z,70
2023-03-02T02:18:07.776Z,64
2023-03-02T02:18:36.161Z,60
2023-03-02T02:18:55.965Z,60
2023-03-02T02:19:27.774Z,59
2023-03-02T02:19:59.752Z,59
2023-03-02T02:20:33.394Z,58
2023-03-02T02:21:04.288Z,58
2023-03-02T02:21:35.754Z,57
2023-03-02T02:22:07.850Z,57
2023-03-02T02:22:36.139Z,57
2023-03-02T02:22:55.999Z,58
2023-03-02T02:23:27.922Z,59
2023-03-02T02:23:59.782Z,58
2023-03-02T02:24:31.808Z,58
2023-03-02T02:25:04.524Z,60
2023-03-02T02:25:35.803Z,60
2023-03-02T02:26:07.859Z,60
2023-03-02T02:26:36.047Z,60
2023-03-02T02:26:56.505Z,59
2023-03-02T02:27:27.874Z,62
2023-03-02T02:27:59.845Z,66
2023-03-02T02:28:31.800Z,70
2023-03-02T02:29:04.315Z,70
2023-03-02T02:29:35.778Z,70
2023-03-02T02:30:10.869Z,71
2023-03-02T02:30:36.345Z,72
2023-03-02T02:30:56.261Z,70
2023-03-02T02:31:27.866Z,68
2023-03-02T02:32:00.008Z,67
2023-03-02T02:32:31.835Z,66
2023-03-02T02:33:04.348Z,63
2023-03-02T02:33:35.912Z,62
2023-03-02T02:34:07.886Z,61
2023-03-02T02:34:36.160Z,58
2023-03-02T02:34:55.782Z,54
2023-03-02T02:35:28.310Z,50
2023-03-02T02:35:59.824Z,45
2023-03-02T02:36:33.179Z,46
2023-03-02T02:37:04.259Z,46
2023-03-02T02:37:35.757Z,48
2023-03-02T02:38:07.759Z,47
2023-03-02T02:38:36.075Z,44
2023-03-02T02:38:55.967Z,39
2023-03-02T02:39:27.907Z,32
2023-03-02T02:39:59.781Z,23
2023-03-02T02:40:32.292Z,14
2023-03-02T02:41:04.318Z,14
2023-03-02T02:41:35.806Z,10
2023-03-02T02:42:07.816Z,2
2023-03-02T02:42:36.068Z,355
2023-03-02T02:42:56.720Z,355
2023-03-02T02:43:27.820Z,356
2023-03-02T02:43:59.783Z,356
2023-03-02T02:44:31.902Z,358
2023-03-02T02:45:04.905Z,356
2023-03-02T02:45:36.358Z,357
2023-03-02T02:46:08.787Z,355
2023-03-02T02:46:36.523Z,355
2023-03-02T02:46:55.924Z,354
2023-03-02T02:47:27.809Z,347
2023-03-02T02:47:59.923Z,340
2023-03-02T02:48:31.862Z,335
2023-03-02T02:49:04.368Z,333
2023-03-02T02:49:35.864Z,337
2023-03-02T02:50:08.094Z,339
2023-03-02T02:50:36.155Z,339
2023-03-02T02:50:56.031Z,340
2023-03-02T02:51:27.844Z,343
2023-03-02T02:51:59.876Z,346
2023-03-02T02:52:32.482Z,346
2023-03-02T02:53:04.371Z,343
2023-03-02T02:53:35.883Z,339
2023-03-02T02:54:07.760Z,338
2023-03-02T02:54:36.363Z,338
2023-03-02T02:54:55.820Z,339
2023-03-02T02:55:28.107Z,337
2023-03-02T02:56:00.072Z,339
2023-03-02T02:56:32.213Z,335
2023-03-02T02:57:04.391Z,333
2023-03-02T02:57:35.825Z,332
2023-03-02T02:58:08.476Z,332
2023-03-02T02:58:36.148Z,333
2023-03-02T02:58:55.821Z,332
2023-03-02T02:59:27.796Z,332
2023-03-02T02:59:59.803Z,333
2023-03-02T03:00:32.366Z,334
2023-03-02T03:01:04.449Z,334
2023-03-02T03:01:35.887Z,333
2023-03-02T03:02:07.892Z,332
2023-03-02T03:02:36.144Z,331
2023-03-02T03:02:55.821Z,330
2023-03-02T03:03:27.868Z,329
2023-03-02T03:03:59.866Z,327
2023-03-02T03:04:32.659Z,326
2023-03-02T03:05:04.630Z,326
2023-03-02T03:05:35.838Z,330
2023-03-02T03:06:07.827Z,334
2023-03-02T03:06:36.036Z,336
2023-03-02T03:06:55.841Z,337
2023-03-02T03:07:27.815Z,338
2023-03-02T03:07:59.818Z,336
2023-03-02T03:08:31.822Z,334
2023-03-02T03:09:04.370Z,334
2023-03-02T03:09:35.904Z,334
2023-03-02T03:10:08.086Z,332
2023-03-02T03:10:36.068Z,329
2023-03-02T03:10:56.888Z,333
2023-03-02T03:11:27.941Z,331
2023-03-02T03:11:59.824Z,328
2023-03-02T03:12:31.860Z,330
2023-03-02T03:13:04.375Z,332
2023-03-02T03:13:35.810Z,333
2023-03-02T03:14:08.708Z,333
2023-03-02T03:14:36.032Z,332
2023-03-02T03:14:55.845Z,331
2023-03-02T03:15:28.342Z,330
2023-03-02T03:15:59.836Z,328
2023-03-02T03:16:32.164Z,326
2023-03-02T03:17:04.459Z,325
2023-03-02T03:17:35.816Z,326
2023-03-02T03:18:07.890Z,330
2023-03-02T03:18:36.155Z,332
2023-03-02T03:18:55.914Z,333
2023-03-02T03:19:27.846Z,333
2023-03-02T03:19:59.919Z,334
2023-03-02T03:20:33.544Z,335
2023-03-02T03:21:04.397Z,331
2023-03-02T03:21:36.317Z,333
2023-03-02T03:22:07.817Z,335
2023-03-02T03:22:36.067Z,338
2023-03-02T03:22:55.815Z,342
2023-03-02T03:23:27.823Z,344
2023-03-02T03:23:59.794Z,346
2023-03-02T03:24:31.826Z,345
2023-03-02T03:25:04.657Z,345
2023-03-02T03:25:35.800Z,346
2023-03-02T03:26:07.799Z,345
2023-03-02T03:26:36.235Z,347
2023-03-02T03:26:56.685Z,347
2023-03-02T03:27:27.918Z,347
2023-03-02T03:27:59.816Z,351
2023-03-02T03:28:31.861Z,354
2023-03-02T03:29:04.405Z,357
2023-03-02T03:29:35.809Z,1
2023-03-02T03:30:11.029Z,5
2023-03-02T03:30:36.104Z,10
2023-03-02T03:30:56.115Z,14
2023-03-02T03:31:27.848Z,19
2023-03-02T03:31:59.923Z,23
2023-03-02T03:32:31.913Z,22
2023-03-02T03:33:04.484Z,22
2023-03-02T03:33:36.130Z,23
2023-03-02T03:34:07.835Z,25
2023-03-02T03:34:36.373Z,25
2023-03-02T03:34:55.908Z,26
2023-03-02T03:35:28.241Z,22
2023-03-02T03:35:59.902Z,21
2023-03-02T03:36:33.041Z,20
2023-03-02T03:37:04.490Z,19
2023-03-02T03:37:36.160Z,18
2023-03-02T03:38:07.843Z,14
2023-03-02T03:38:36.043Z,10
2023-03-02T03:38:55.840Z,5
2023-03-02T03:39:27.865Z,0
2023-03-02T03:39:59.832Z,356
2023-03-02T03:40:32.150Z,351
2023-03-02T03:41:04.577Z,346
2023-03-02T03:41:35.860Z,342
2023-03-02T03:42:07.832Z,337
2023-03-02T03:42:36.021Z,333
2023-03-02T03:42:56.527Z,329
2023-03-02T03:43:27.902Z,326
2023-03-02T03:43:59.826Z,322
2023-03-02T03:44:31.859Z,321
2023-03-02T03:45:05.046Z,319
2023-03-02T03:45:35.859Z,319
2023-03-02T03:46:10.024Z,320
2023-03-02T03:46:36.419Z,321
2023-03-02T03:46:55.835Z,321
2023-03-02T03:47:27.881Z,321
2023-03-02T03:48:00.140Z,322
2023-03-02T03:48:31.806Z,323
2023-03-02T03:49:04.459Z,324
2023-03-02T03:49:35.823Z,325
2023-03-02T03:50:08.084Z,326
2023-03-02T03:50:36.018Z,326
2023-03-02T03:50:56.092Z,326
2023-03-02T03:51:27.888Z,325
2023-03-02T03:51:59.825Z,326
2023-03-02T03:52:32.655Z,326
2023-03-02T03:53:04.428Z,327
2023-03-02T03:53:35.803Z,327
2023-03-02T03:54:07.973Z,328
2023-03-02T03:54:36.071Z,329
2023-03-02T03:54:55.828Z,331
2023-03-02T03:55:28.096Z,332
2023-03-02T03:55:59.800Z,331
2023-03-02T03:56:32.130Z,333
2023-03-02T03:57:04.479Z,333
2023-03-02T03:57:35.812Z,333
2023-03-02T03:58:08.587Z,332
2023-03-02T03:58:36.097Z,334
2023-03-02T03:58:55.870Z,336
2023-03-02T03:59:27.908Z,338
2023-03-02T03:59:59.866Z,341
2023-03-02T04:00:32.407Z,342
2023-03-02T04:01:04.631Z,344
2023-03-02T04:01:36.016Z,346
2023-03-02T04:02:07.824Z,348
2023-03-02T04:02:36.012Z,349
2023-03-02T04:02:55.883Z,350
2023-03-02T04:03:27.829Z,351
2023-03-02T04:03:59.813Z,350
2023-03-02T04:04:32.540Z,350
2023-03-02T04:05:04.839Z,347
2023-03-02T04:05:35.825Z,344
2023-03-02T04:06:07.825Z,346
2023-03-02T04:06:36.144Z,347
2023-03-02T04:06:55.882Z,351
2023-03-02T04:07:27.894Z,356
2023-03-02T04:07:59.859Z,360
2023-03-02T04:08:32.066Z,0
2023-03-02T04:09:04.575Z,0
2023-03-02T04:09:35.856Z,0
2023-03-02T04:10:08.143Z,0
2023-03-02T04:10:36.031Z,1
2023-03-02T04:10:56.936Z,2
2023-03-02T04:11:28.007Z,3
2023-03-02T04:11:59.901Z,8
2023-03-02T04:12:31.936Z,12
2023-03-02T04:13:04.527Z,17
2023-03-02T04:13:35.949Z,22
2023-03-02T04:14:08.690Z,29
2023-03-02T04:14:36.036Z,35
2023-03-02T04:14:55.842Z,40
2023-03-02T04:15:28.436Z,45
2023-03-02T04:15:59.922Z,50
2023-03-02T04:16:32.344Z,49
2023-03-02T04:17:04.510Z,49
2023-03-02T04:17:35.885Z,51
2023-03-02T04:18:07.865Z,50
2023-03-02T04:18:36.260Z,48
2023-03-02T04:18:55.856Z,46
2023-03-02T04:19:28.011Z,45
2023-03-02T04:19:59.874Z,45
2023-03-02T04:20:32.942Z,44
2023-03-02T04:21:04.491Z,44
2023-03-02T04:21:35.938Z,43
2023-03-02T04:22:07.852Z,40
2023-03-02T04:22:36.036Z,36
2023-03-02T04:22:55.893Z,31
2023-03-02T04:23:27.994Z,27
2023-03-02T04:23:59.874Z,23
2023-03-02T04:24:31.890Z,19
2023-03-02T04:25:04.828Z,15
2023-03-02T04:25:35.873Z,11
2023-03-02T04:26:07.894Z,8
2023-03-02T04:26:36.063Z,4
2023-03-02T04:26:56.697Z,1
2023-03-02T04:27:27.852Z,358
2023-03-02T04:27:59.845Z,358
2023-03-02T04:28:31.973Z,357
2023-03-02T04:29:04.531Z,356
2023-03-02T04:29:36.166Z,355
2023-03-02T04:30:11.018Z,354
2023-03-02T04:30:36.079Z,353
2023-03-02T04:30:56.331Z,352
2023-03-02T04:31:28.043Z,351
2023-03-02T04:31:59.861Z,350
2023-03-02T04:32:31.974Z,349
2023-03-02T04:33:04.581Z,348
2023-03-02T04:33:36.018Z,347
2023-03-02T04:34:07.852Z,347
2023-03-02T04:34:36.035Z,346
2023-03-02T04:34:55.891Z,345
2023-03-02T04:35:28.376Z,345
2023-03-02T04:35:59.896Z,344
2023-03-02T04:36:33.077Z,343
2023-03-02T04:37:04.559Z,343
2023-03-02T04:37:35.861Z,343
2023-03-02T04:38:07.847Z,343
2023-03-02T04:38:36.022Z,344
2023-03-02T04:38:55.905Z,345
2023-03-02T04:39:27.979Z,346
2023-03-02T04:40:00.541Z,347
2023-03-02T04:40:32.072Z,348
2023-03-02T04:41:04.581Z,349
2023-03-02T04:41:36.113Z,349
2023-03-02T04:42:07.907Z,350
2023-03-02T04:42:36.039Z,351
2023-03-02T04:42:56.543Z,352
2023-03-02T04:43:27.889Z,353
2023-03-02T04:44:00.105Z,354
2023-03-02T04:44:31.891Z,355
2023-03-02T04:45:05.202Z,356
2023-03-02T04:45:35.908Z,357
2023-03-02T04:46:09.085Z,357
2023-03-02T04:46:36.345Z,358
2023-03-02T04:46:55.986Z,358
2023-03-02T04:47:27.910Z,358
2023-03-02T04:47:59.901Z,358
2023-03-02T04:48:31.910Z,357
2023-03-02T04:49:04.590Z,357
2023-03-02T04:49:35.903Z,357
2023-03-02T04:50:08.183Z,358
2023-03-02T04:50:36.055Z,359
2023-03-02T04:50:56.135Z,1
2023-03-02T04:51:27.880Z,2
2023-03-02T04:51:59.861Z,3
2023-03-02T04:52:32.773Z,4
2023-03-02T04:53:04.528Z,5
2023-03-02T04:53:35.899Z,6
2023-03-02T04:54:07.875Z,8
2023-03-02T04:54:36.025Z,9
2023-03-02T04:54:55.933Z,10
2023-03-02T04:55:28.296Z,11
2023-03-02T04:55:59.957Z,13
2023-03-02T04:56:32.256Z,14
2023-03-02T04:57:04.595Z,16
2023-03-02T04:57:35.904Z,17
2023-03-02T04:58:08.835Z,18
2023-03-02T04:58:36.351Z,20
2023-03-02T04:58:55.947Z,21
2023-03-02T04:59:28.032Z,23
2023-03-02T04:59:59.924Z,22
2023-03-02T05:00:33.587Z,22
2023-03-02T05:01:04.565Z,22
2023-03-02T05:01:35.905Z,21
2023-03-02T05:02:07.400Z,21
2023-03-02T05:02:35.761Z,21
2023-03-02T05:02:55.491Z,21
2023-03-02T05:03:27.640Z,21
2023-03-02T05:04:01.244Z,21
2023-03-02T05:04:32.486Z,21
2023-03-02T05:05:03.660Z,21
2023-03-02T05:05:35.427Z,21
2023-03-02T05:06:07.418Z,21
2023-03-02T05:06:36.949Z,21
2023-03-02T05:06:56.856Z,22
2023-03-02T05:07:28.987Z,21
2023-03-02T05:08:00.401Z,21
2023-03-02T05:08:31.986Z,20
2023-03-02T05:09:03.899Z,19
2023-03-02T05:09:35.877Z,17
2023-03-02T05:10:08.214Z,15
2023-03-02T05:10:36.656Z,13
2023-03-02T05:10:57.149Z,11
2023-03-02T05:11:27.941Z,9
2023-03-02T05:12:00.466Z,7
2023-03-02T05:12:31.994Z,5
2023-03-02T05:13:03.954Z,3
2023-03-02T05:13:36.018Z,1
2023-03-02T05:14:08.969Z,359
2023-03-02T05:14:36.045Z,357
2023-03-02T05:14:55.910Z,355
2023-03-02T05:15:28.474Z,353
2023-03-02T05:16:00.597Z,351
2023-03-02T05:16:32.505Z,350
2023-03-02T05:17:03.966Z,348
2023-03-02T05:17:35.955Z,347
2023-03-02T05:18:07.935Z,347
2023-03-02T05:18:36.039Z,347
2023-03-02T05:18:55.913Z,347
2023-03-02T05:19:27.954Z,348
2023-03-02T05:20:02.686Z,348
2023-03-02T05:20:32.656Z,347
2023-03-02T05:21:03.963Z,346
2023-03-02T05:21:36.249Z,346
2023-03-02T05:22:07.956Z,347
2023-03-02T05:22:36.216Z,346
2023-03-02T05:22:55.923Z,346
2023-03-02T05:23:27.916Z,345
2023-03-02T05:24:00.538Z,345
2023-03-02T05:24:32.000Z,348
2023-03-02T05:25:04.209Z,349
2023-03-02T05:25:35.919Z,350
2023-03-02T05:26:07.954Z,350
2023-03-02T05:26:36.118Z,349
2023-03-02T05:26:56.642Z,347
2023-03-02T05:27:27.949Z,346
2023-03-02T05:28:00.518Z,343
2023-03-02T05:28:32.009Z,341
2023-03-02T05:29:03.956Z,340
2023-03-02T05:29:35.932Z,339
2023-03-02T05:30:10.931Z,338
2023-03-02T05:30:36.067Z,342
2023-03-02T05:30:56.247Z,344
2023-03-02T05:31:27.990Z,344
2023-03-02T05:32:00.737Z,342
2023-03-02T05:32:32.088Z,344
2023-03-02T05:33:04.037Z,346
2023-03-02T05:33:36.020Z,346
2023-03-02T05:34:08.058Z,348
2023-03-02T05:34:36.022Z,346
2023-03-02T05:34:55.962Z,344
2023-03-02T05:35:28.302Z,344
2023-03-02T05:36:00.819Z,344
2023-03-02T05:36:33.034Z,345
2023-03-02T05:37:03.946Z,344
2023-03-02T05:37:35.930Z,344
2023-03-02T05:38:07.939Z,347
2023-03-02T05:38:36.102Z,351
2023-03-02T05:38:55.930Z,353
2023-03-02T05:39:28.037Z,354
2023-03-02T05:40:00.900Z,355
2023-03-02T05:40:32.011Z,353
2023-03-02T05:41:04.087Z,352
2023-03-02T05:41:36.028Z,353
2023-03-02T05:42:07.936Z,355
2023-03-02T05:42:36.012Z,353
2023-03-02T05:42:56.663Z,353
2023-03-02T05:43:28.075Z,354
2023-03-02T05:44:00.463Z,353
2023-03-02T05:44:32.022Z,353
2023-03-02T05:45:04.584Z,353
2023-03-02T05:45:35.986Z,353
2023-03-02T05:46:09.160Z,353
2023-03-02T05:46:36.198Z,353
2023-03-02T05:46:55.987Z,354
2023-03-02T05:47:28.026Z,353
2023-03-02T05:48:00.598Z,349
2023-03-02T05:48:32.012Z,346
2023-03-02T05:49:03.949Z,344
2023-03-02T05:49:35.925Z,342
2023-03-02T05:50:08.368Z,341
2023-03-02T05:50:36.025Z,341
2023-03-02T05:50:56.282Z,340
2023-03-02T05:51:28.028Z,339
2023-03-02T05:52:00.555Z,341
2023-03-02T05:52:32.747Z,342
2023-03-02T05:53:04.037Z,344
2023-03-02T05:53:35.952Z,345
2023-03-02T05:54:07.972Z,344
2023-03-02T05:54:36.011Z,344
2023-03-02T05:54:58.040Z,342
2023-03-02T05:55:28.290Z,341
2023-03-02T05:56:00.549Z,341
2023-03-02T05:56:32.343Z,341
2023-03-02T05:57:03.952Z,341
2023-03-02T05:57:36.047Z,344
2023-03-02T05:58:10.047Z,345
2023-03-02T05:58:36.292Z,346
2023-03-02T05:58:55.979Z,349
2023-03-02T05:59:28.060Z,351
2023-03-02T06:00:02.807Z,352
2023-03-02T06:00:32.192Z,353
2023-03-02T06:01:03.966Z,354
2023-03-02T06:01:36.180Z,358
2023-03-02T06:02:08.114Z,359
2023-03-02T06:02:36.002Z,1
2023-03-02T06:02:56.026Z,2
2023-03-02T06:03:28.049Z,4
2023-03-02T06:04:00.556Z,8
2023-03-02T06:04:32.644Z,12
2023-03-02T06:05:04.262Z,16
2023-03-02T06:05:35.946Z,19
2023-03-02T06:06:07.975Z,24
2023-03-02T06:06:36.531Z,28
2023-03-02T06:06:56.112Z,29
2023-03-02T06:07:28.133Z,29
2023-03-02T06:08:00.605Z,29
2023-03-02T06:08:32.202Z,29
2023-03-02T06:09:04.104Z,27
2023-03-02T06:09:36.279Z,25
2023-03-02T06:10:08.443Z,24
2023-03-02T06:10:37.007Z,22
2023-03-02T06:10:57.168Z,25
2023-03-02T06:11:28.091Z,24
2023-03-02T06:12:00.608Z,24
2023-03-02T06:12:32.155Z,23
2023-03-02T06:13:04.025Z,20
2023-03-02T06:13:36.348Z,17
2023-03-02T06:14:08.961Z,16
2023-03-02T06:14:36.086Z,16
2023-03-02T06:14:56.111Z,13
2023-03-02T06:15:28.570Z,12
2023-03-02T06:16:00.787Z,9
2023-03-02T06:16:32.480Z,4
2023-03-02T06:17:04.090Z,3
2023-03-02T06:17:36.111Z,5
2023-03-02T06:18:08.093Z,5
2023-03-02T06:18:36.136Z,6
2023-03-02T06:18:56.079Z,6
2023-03-02T06:19:28.062Z,7
2023-03-02T06:20:02.584Z,7
2023-03-02T06:20:32.891Z,7
2023-03-02T06:21:04.101Z,3
2023-03-02T06:21:36.078Z,4
2023-03-02T06:22:08.086Z,2
2023-03-02T06:22:36.135Z,359
2023-03-02T06:22:56.077Z,359
2023-03-02T06:23:28.100Z,358
2023-03-02T06:24:00.937Z,355
2023-03-02T06:24:32.145Z,353
2023-03-02T06:25:04.412Z,351
2023-03-02T06:25:36.118Z,351
2023-03-02T06:26:08.098Z,350
2023-03-02T06:26:36.154Z,349
2023-03-02T06:26:56.743Z,347
2023-03-02T06:27:28.070Z,346
2023-03-02T06:28:00.631Z,348
2023-03-02T06:28:34.259Z,349
2023-03-02T06:29:04.242Z,348
2023-03-02T06:29:36.060Z,347
2023-03-02T06:30:10.940Z,347
2023-03-02T06:30:36.150Z,349
2023-03-02T06:30:56.366Z,349
2023-03-02T06:31:28.094Z,345
2023-03-02T06:32:00.766Z,345
2023-03-02T06:32:32.215Z,344
2023-03-02T06:33:04.136Z,344
2023-03-02T06:33:36.088Z,345
2023-03-02T06:34:08.128Z,345
2023-03-02T06:34:36.114Z,345
2023-03-02T06:34:56.168Z,347
2023-03-02T06:35:28.584Z,348
2023-03-02T06:36:00.721Z,350
2023-03-02T06:36:33.298Z,353
2023-03-02T06:37:04.113Z,354
2023-03-02T06:37:36.118Z,354
2023-03-02T06:38:08.124Z,351
2023-03-02T06:38:36.124Z,349
2023-03-02T06:38:56.102Z,349
2023-03-02T06:39:28.099Z,349
2023-03-02T06:40:01.111Z,350
2023-03-02T06:40:32.179Z,349
2023-03-02T06:41:04.140Z,348
2023-03-02T06:41:36.595Z,349
2023-03-02T06:42:08.220Z,349
2023-03-02T06:42:36.128Z,349
2023-03-02T06:42:56.910Z,350
2023-03-02T06:43:28.119Z,350
2023-03-02T06:44:00.693Z,352
2023-03-02T06:44:32.172Z,351
2023-03-02T06:45:04.715Z,350
2023-03-02T06:45:36.132Z,347
2023-03-02T06:46:09.131Z,344
2023-03-02T06:46:36.104Z,343
2023-03-02T06:46:56.110Z,344
2023-03-02T06:47:28.112Z,344
2023-03-02T06:48:00.680Z,345
2023-03-02T06:48:32.164Z,346
2023-03-02T06:49:04.112Z,345
2023-03-02T06:49:36.119Z,346
2023-03-02T06:50:08.525Z,345
2023-03-02T06:50:36.105Z,346
2023-03-02T06:50:56.325Z,346
2023-03-02T06:51:28.141Z,345
2023-03-02T06:52:00.722Z,346
2023-03-02T06:52:32.917Z,347
2023-03-02T06:53:04.094Z,346
2023-03-02T06:53:36.128Z,348
2023-03-02T06:54:08.130Z,347
2023-03-02T06:54:36.154Z,346
2023-03-02T06:54:57.116Z,346
2023-03-02T06:55:28.480Z,348
2023-03-02T06:56:00.720Z,349
2023-03-02T06:56:32.513Z,350
2023-03-02T06:57:04.106Z,349
2023-03-02T06:57:36.152Z,352
2023-03-02T06:58:08.155Z,351
2023-03-02T06:58:36.197Z,353
2023-03-02T06:58:56.886Z,356
2023-03-02T06:59:28.138Z,359
2023-03-02T07:00:02.860Z,1
2023-03-02T07:00:32.187Z,2
2023-03-02T07:01:04.328Z,4
2023-03-02T07:01:36.490Z,8
2023-03-02T07:02:08.994Z,10
2023-03-02T07:02:36.142Z,12